Time;durP1;ratioP1;P1;durP2;ratioP2;P2;SDS_P1;SDS_P2;PMS_P1;PMS_P2;Temp;Humidity;BMP_temperature;BMP_pressure;BME280_temperature;BME280_humidity;BME280_pressure;Samples;Min_cycle;Max_cycle;Signal;HPM_P1;HPM_P2
2023/09/09 00:01:03;;;;;;;;;;;27.50;57.30;;;;;;5073431;28;20054;-55
2023/09/09 00:03:28;;;;;;;;;;;27.50;57.40;;;;;;5093653;28;19919;-56
2023/09/09 00:05:54;;;;;;;;;;;27.50;57.40;;;;;;5095492;28;20003;-55
2023/09/09 00:08:19;;;;;;;;;;;27.50;57.30;;;;;;5095600;28;20389;-55
2023/09/09 00:10:45;;;;;;;;;;;27.50;57.20;;;;;;5095205;28;19912;-56
2023/09/09 00:13:11;;;;;;;;;;;27.50;57.30;;;;;;5093667;28;19912;-55
2023/09/09 00:15:36;;;;;;;;;;;27.50;57.40;;;;;;5094739;28;19908;-56
2023/09/09 00:18:02;;;;;;;;;;;27.50;57.40;;;;;;5092520;28;19913;-54
2023/09/09 00:20:32;;;;;;;;;;;27.50;57.40;;;;;;5095205;28;19958;-55
2023/09/09 00:22:57;;;;;;;;;;;27.40;57.40;;;;;;5078580;28;19916;-55
2023/09/09 00:25:23;;;;;;;;;;;27.50;57.50;;;;;;5074248;28;19909;-55
2023/09/09 00:27:48;;;;;;;;;;;27.40;57.30;;;;;;5074704;28;19908;-55
2023/09/09 00:30:14;;;;;;;;;;;27.50;57.30;;;;;;5074591;28;19908;-55
2023/09/09 00:32:39;;;;;;;;;;;27.40;57.10;;;;;;5085825;28;19912;-55
2023/09/09 00:35:05;;;;;;;;;;;27.40;57.40;;;;;;5094797;28;19912;-55
2023/09/09 00:37:30;;;;;;;;;;;27.40;57.40;;;;;;5094977;28;20053;-56
2023/09/09 00:39:55;;;;;;;;;;;27.40;57.50;;;;;;5094612;28;20057;-55
2023/09/09 00:42:21;;;;;;;;;;;27.40;57.20;;;;;;5093336;28;19916;-55
2023/09/09 00:44:46;;;;;;;;;;;27.40;57.30;;;;;;5094701;28;19908;-56
2023/09/09 00:47:12;;;;;;;;;;;27.40;57.20;;;;;;5092224;28;19912;-56
2023/09/09 00:49:40;;;;;;;;;;;27.40;57.20;;;;;;5094475;28;19908;-55
2023/09/09 00:52:05;;;;;;;;;;;27.40;57.20;;;;;;5092837;28;19931;-56
2023/09/09 00:54:32;;;;;;;;;;;27.30;57.20;;;;;;5091295;28;20356;-55
2023/09/09 00:57:00;;;;;;;;;;;27.40;57.40;;;;;;5074175;28;19909;-55
2023/09/09 00:59:26;;;;;;;;;;;27.30;57.20;;;;;;5072962;28;19912;-55
2023/09/09 01:01:51;;;;;;;;;;;27.30;57.20;;;;;;5077320;28;19908;-55
2023/09/09 01:04:16;;;;;;;;;;;27.40;57.50;;;;;;5094105;28;19916;-55
2023/09/09 01:06:42;;;;;;;;;;;27.30;57.20;;;;;;5094180;28;19916;-55
2023/09/09 01:09:08;;;;;;;;;;;27.30;57.20;;;;;;5092815;28;20065;-56
2023/09/09 01:11:34;;;;;;;;;;;27.30;57.10;;;;;;5092968;28;20006;-55
2023/09/09 01:13:59;;;;;;;;;;;27.30;57.20;;;;;;5094137;28;20007;-55
2023/09/09 01:16:25;;;;;;;;;;;27.30;57.40;;;;;;5093972;28;19912;-55
2023/09/09 01:18:50;;;;;;;;;;;27.30;57.40;;;;;;5092033;28;19908;-55
2023/09/09 01:21:16;;;;;;;;;;;27.30;57.30;;;;;;5093902;28;20392;-55
2023/09/09 01:23:41;;;;;;;;;;;27.30;57.30;;;;;;5073022;28;20260;-54
2023/09/09 01:26:07;;;;;;;;;;;27.30;57.40;;;;;;5072835;28;19913;-55
2023/09/09 01:28:32;;;;;;;;;;;27.20;57.30;;;;;;5073423;28;19908;-56
2023/09/09 01:30:58;;;;;;;;;;;27.20;57.40;;;;;;5073470;28;19909;-55
2023/09/09 01:33:23;;;;;;;;;;;27.20;57.50;;;;;;5088639;28;19955;-55
2023/09/09 01:35:49;;;;;;;;;;;27.30;57.30;;;;;;5093645;28;19912;-55
2023/09/09 01:38:14;;;;;;;;;;;27.20;57.20;;;;;;5093763;28;19952;-55
2023/09/09 01:40:40;;;;;;;;;;;27.20;57.20;;;;;;5093800;28;19930;-55
2023/09/09 01:43:05;;;;;;;;;;;27.20;57.30;;;;;;5093562;28;19916;-55
2023/09/09 01:45:31;;;;;;;;;;;27.20;57.20;;;;;;5087478;28;20035;-56
2023/09/09 01:47:56;;;;;;;;;;;27.20;57.20;;;;;;5091148;28;19957;-55
2023/09/09 01:50:22;;;;;;;;;;;27.20;57.20;;;;;;5091982;28;19998;-55
2023/09/09 01:52:47;;;;;;;;;;;27.20;57.20;;;;;;5075008;28;19916;-55
2023/09/09 01:55:12;;;;;;;;;;;27.20;57.20;;;;;;5073130;28;20401;-55
2023/09/09 01:57:38;;;;;;;;;;;27.20;57.20;;;;;;5073110;28;19909;-55
2023/09/09 02:00:10;;;;;;;;;;;27.20;57.20;;;;;;5073060;28;19914;-55
2023/09/09 02:02:35;;;;;;;;;;;27.10;57.10;;;;;;5079718;28;20522;-55
2023/09/09 02:05:01;;;;;;;;;;;27.10;57.70;;;;;;5072959;28;19944;-55
2023/09/09 02:07:27;;;;;;;;;;;27.10;57.10;;;;;;5073069;28;19920;-55
2023/09/09 02:09:52;;;;;;;;;;;27.10;57.10;;;;;;5072951;28;19916;-55
2023/09/09 02:12:18;;;;;;;;;;;27.10;57.10;;;;;;5072793;28;20388;-57
2023/09/09 02:14:43;;;;;;;;;;;27.10;57.10;;;;;;5072997;28;19916;-55
2023/09/09 02:17:09;;;;;;;;;;;27.10;57.10;;;;;;5072770;28;19912;-56
2023/09/09 02:19:35;;;;;;;;;;;27.10;57.80;;;;;;5073025;28;20364;-55
2023/09/09 02:22:00;;;;;;;;;;;27.10;57.10;;;;;;5072965;28;19943;-55
2023/09/09 02:24:25;;;;;;;;;;;27.10;57.10;;;;;;5072788;28;19909;-55
2023/09/09 02:26:51;;;;;;;;;;;27.00;57.00;;;;;;5072729;28;19909;-55
2023/09/09 02:29:17;;;;;;;;;;;27.00;57.10;;;;;;5072631;28;19932;-55
2023/09/09 02:31:42;;;;;;;;;;;27.10;57.10;;;;;;5072651;28;19916;-56
2023/09/09 02:34:08;;;;;;;;;;;27.00;57.10;;;;;;5072656;28;20026;-55
2023/09/09 02:36:33;;;;;;;;;;;27.00;57.10;;;;;;5072660;28;19987;-55
2023/09/09 02:38:59;;;;;;;;;;;27.00;57.20;;;;;;5073191;28;20003;-55
2023/09/09 02:41:24;;;;;;;;;;;27.00;57.10;;;;;;5076565;28;19916;-55
2023/09/09 02:43:49;;;;;;;;;;;27.00;57.10;;;;;;5076711;28;19912;-55
2023/09/09 02:46:15;;;;;;;;;;;27.00;57.00;;;;;;5076598;28;20334;-55
2023/09/09 02:48:40;;;;;;;;;;;27.00;57.10;;;;;;5076826;28;20326;-55
2023/09/09 02:51:06;;;;;;;;;;;27.00;57.00;;;;;;5076340;28;19942;-55
2023/09/09 02:53:31;;;;;;;;;;;26.90;57.10;;;;;;5076432;28;20405;-55
2023/09/09 02:55:57;;;;;;;;;;;26.90;57.10;;;;;;5076530;28;19908;-55
2023/09/09 02:58:22;;;;;;;;;;;26.90;57.10;;;;;;5076623;28;20011;-55
2023/09/09 03:00:48;;;;;;;;;;;26.90;57.10;;;;;;5076303;28;19909;-55
2023/09/09 03:03:15;;;;;;;;;;;26.90;57.00;;;;;;5076210;28;19913;-55
2023/09/09 03:05:41;;;;;;;;;;;26.90;57.10;;;;;;5076301;28;20003;-55
2023/09/09 03:08:06;;;;;;;;;;;26.90;57.10;;;;;;5076036;28;20009;-55
2023/09/09 03:10:32;;;;;;;;;;;26.90;57.10;;;;;;5076177;28;19908;-55
2023/09/09 03:12:57;;;;;;;;;;;26.90;57.10;;;;;;5076007;28;20404;-55
2023/09/09 03:15:23;;;;;;;;;;;26.90;57.10;;;;;;5075970;28;19909;-54
2023/09/09 03:17:49;;;;;;;;;;;26.80;57.00;;;;;;5075953;28;19908;-55
2023/09/09 03:20:14;;;;;;;;;;;26.80;57.00;;;;;;5075827;28;19908;-55
2023/09/09 03:22:40;;;;;;;;;;;26.80;57.00;;;;;;5075809;28;19966;-55
2023/09/09 03:25:06;;;;;;;;;;;26.80;57.00;;;;;;5075706;28;20284;-55
2023/09/09 03:27:32;;;;;;;;;;;26.80;56.90;;;;;;5075798;28;19908;-55
2023/09/09 03:29:58;;;;;;;;;;;26.80;56.90;;;;;;5075988;28;19987;-55
2023/09/09 03:32:25;;;;;;;;;;;26.80;57.00;;;;;;5075765;28;19909;-55
2023/09/09 03:34:51;;;;;;;;;;;26.70;56.90;;;;;;5074527;28;20380;-55
2023/09/09 03:37:17;;;;;;;;;;;26.80;57.00;;;;;;5075796;28;19962;-55
2023/09/09 03:39:42;;;;;;;;;;;26.70;56.90;;;;;;5075941;28;19908;-55
2023/09/09 03:42:08;;;;;;;;;;;26.80;56.90;;;;;;5075416;28;19913;-55
2023/09/09 03:44:33;;;;;;;;;;;26.80;56.90;;;;;;5075587;28;19971;-55
2023/09/09 03:46:59;;;;;;;;;;;26.70;56.90;;;;;;5075457;28;19909;-55
2023/09/09 03:49:25;;;;;;;;;;;26.80;56.90;;;;;;5075350;28;19919;-55
2023/09/09 03:51:51;;;;;;;;;;;26.70;56.90;;;;;;5074026;28;19920;-55
2023/09/09 03:54:16;;;;;;;;;;;26.60;56.80;;;;;;5075338;28;19970;-55
2023/09/09 03:56:42;;;;;;;;;;;26.70;56.80;;;;;;5075251;28;20284;-55
2023/09/09 03:59:07;;;;;;;;;;;26.80;56.90;;;;;;5075189;28;20368;-55
2023/09/09 04:01:32;;;;;;;;;;;26.70;56.90;;;;;;5075194;28;20403;-55
2023/09/09 04:03:58;;;;;;;;;;;26.70;56.90;;;;;;5075159;28;20406;-55
2023/09/09 04:06:24;;;;;;;;;;;26.70;56.90;;;;;;5073864;28;19916;-55
2023/09/09 04:08:55;;;;;;;;;;;26.70;56.90;;;;;;5075003;28;19909;-55
2023/09/09 04:11:20;;;;;;;;;;;26.70;56.90;;;;;;5081717;28;19919;-55
2023/09/09 04:13:46;;;;;;;;;;;26.70;56.90;;;;;;5074864;28;19909;-56
2023/09/09 04:16:11;;;;;;;;;;;26.70;56.90;;;;;;5074894;28;19909;-55
2023/09/09 04:18:37;;;;;;;;;;;26.70;56.90;;;;;;5073572;28;19954;-55
2023/09/09 04:21:02;;;;;;;;;;;26.60;56.80;;;;;;5074763;28;19916;-55
2023/09/09 04:23:28;;;;;;;;;;;26.60;56.90;;;;;;5074833;28;20383;-55
2023/09/09 04:25:53;;;;;;;;;;;26.60;56.90;;;;;;5074643;28;20399;-55
2023/09/09 04:28:18;;;;;;;;;;;26.60;56.90;;;;;;5074708;28;19909;-55
2023/09/09 04:30:45;;;;;;;;;;;26.60;56.90;;;;;;5074729;28;20372;-55
2023/09/09 04:33:11;;;;;;;;;;;26.60;56.90;;;;;;5074558;28;20361;-55
2023/09/09 04:35:37;;;;;;;;;;;26.60;56.80;;;;;;5073297;28;19999;-55
2023/09/09 04:38:03;;;;;;;;;;;26.60;56.80;;;;;;5074517;28;20317;-55
2023/09/09 04:40:28;;;;;;;;;;;26.60;56.80;;;;;;5074522;28;19909;-55
2023/09/09 04:42:54;;;;;;;;;;;26.50;56.70;;;;;;5074548;28;19919;-55
2023/09/09 04:45:19;;;;;;;;;;;26.50;56.80;;;;;;5074362;28;19908;-54
2023/09/09 04:47:45;;;;;;;;;;;26.50;56.80;;;;;;5074313;28;20296;-55
2023/09/09 04:50:10;;;;;;;;;;;26.50;56.80;;;;;;5074242;28;20042;-55
2023/09/09 04:52:36;;;;;;;;;;;26.50;56.80;;;;;;5074020;28;20376;-55
2023/09/09 04:55:03;;;;;;;;;;;26.50;56.70;;;;;;5074172;28;19916;-55
2023/09/09 04:57:28;;;;;;;;;;;26.50;56.70;;;;;;5073950;28;19965;-55
2023/09/09 04:59:54;;;;;;;;;;;26.50;56.70;;;;;;5074000;28;19909;-55
2023/09/09 05:02:19;;;;;;;;;;;26.50;56.70;;;;;;5073485;28;20326;-55
2023/09/09 05:04:45;;;;;;;;;;;26.50;56.70;;;;;;5073990;28;20339;-55
2023/09/09 05:07:10;;;;;;;;;;;26.50;56.70;;;;;;5073774;28;19908;-55
2023/09/09 05:09:35;;;;;;;;;;;26.40;56.70;;;;;;5073923;28;19912;-55
2023/09/09 05:12:01;;;;;;;;;;;26.40;56.70;;;;;;5073726;28;20376;-56
2023/09/09 05:14:26;;;;;;;;;;;26.40;56.70;;;;;;5073834;28;20357;-55
2023/09/09 05:16:52;;;;;;;;;;;26.40;56.70;;;;;;5073852;28;19909;-55
2023/09/09 05:19:17;;;;;;;;;;;26.40;56.70;;;;;;5073904;28;19943;-55
2023/09/09 05:21:43;;;;;;;;;;;26.40;56.70;;;;;;5073775;28;19909;-55
2023/09/09 05:24:08;;;;;;;;;;;26.40;56.70;;;;;;5073745;28;19913;-55
2023/09/09 05:26:34;;;;;;;;;;;26.40;56.70;;;;;;5073504;28;19908;-55
2023/09/09 05:29:01;;;;;;;;;;;26.40;56.70;;;;;;5073408;28;19959;-55
2023/09/09 05:31:26;;;;;;;;;;;26.40;56.70;;;;;;5073424;28;19909;-55
2023/09/09 05:33:52;;;;;;;;;;;26.40;56.70;;;;;;5073380;28;19908;-55
2023/09/09 05:36:17;;;;;;;;;;;26.40;56.80;;;;;;5073343;28;19909;-55
2023/09/09 05:38:42;;;;;;;;;;;26.40;56.70;;;;;;5073294;28;20360;-55
2023/09/09 05:41:08;;;;;;;;;;;26.40;56.70;;;;;;5073256;28;20290;-55
2023/09/09 05:43:33;;;;;;;;;;;26.40;56.70;;;;;;5073124;28;20352;-56
2023/09/09 05:45:59;;;;;;;;;;;26.30;56.70;;;;;;5073194;28;20276;-55
2023/09/09 05:48:24;;;;;;;;;;;26.40;56.70;;;;;;5073269;28;19908;-56
2023/09/09 05:50:50;;;;;;;;;;;26.30;56.70;;;;;;5071763;28;20426;-55
2023/09/09 05:53:15;;;;;;;;;;;26.30;56.70;;;;;;5073215;28;20391;-55
2023/09/09 05:55:41;;;;;;;;;;;26.30;56.70;;;;;;5073301;28;19927;-55
2023/09/09 05:58:07;;;;;;;;;;;26.30;56.60;;;;;;5072990;28;19916;-55
2023/09/09 06:00:32;;;;;;;;;;;26.30;56.60;;;;;;5073048;28;20000;-55
2023/09/09 06:02:58;;;;;;;;;;;26.30;56.70;;;;;;5072922;28;19970;-55
2023/09/09 06:05:23;;;;;;;;;;;26.30;56.70;;;;;;5073014;28;19908;-55
2023/09/09 06:07:48;;;;;;;;;;;26.30;56.70;;;;;;5073033;28;19908;-55
2023/09/09 06:10:14;;;;;;;;;;;26.20;56.60;;;;;;5072886;28;20000;-55
2023/09/09 06:12:40;;;;;;;;;;;26.30;56.70;;;;;;5072939;28;19962;-55
2023/09/09 06:15:05;;;;;;;;;;;26.20;56.60;;;;;;5072087;28;20468;-55
2023/09/09 06:17:31;;;;;;;;;;;26.30;56.60;;;;;;5073151;28;20258;-55
2023/09/09 06:19:56;;;;;;;;;;;26.20;56.70;;;;;;5072772;28;19915;-55
2023/09/09 06:22:22;;;;;;;;;;;26.20;56.60;;;;;;5071696;28;19908;-55
2023/09/09 06:24:47;;;;;;;;;;;26.30;56.70;;;;;;5072795;28;19984;-56
2023/09/09 06:27:13;;;;;;;;;;;26.20;56.70;;;;;;5054741;28;20276;-55
2023/09/09 06:29:38;;;;;;;;;;;26.20;56.70;;;;;;5072764;28;19908;-55
2023/09/09 06:32:06;;;;;;;;;;;26.20;56.70;;;;;;5072640;28;20026;-55
2023/09/09 06:34:31;;;;;;;;;;;26.20;56.60;;;;;;5072801;28;19957;-55
2023/09/09 06:36:57;;;;;;;;;;;26.20;56.70;;;;;;5072687;28;19909;-55
2023/09/09 06:39:22;;;;;;;;;;;26.20;56.70;;;;;;5072598;28;20291;-55
2023/09/09 06:41:48;;;;;;;;;;;26.20;56.60;;;;;;5054651;28;19908;-55
2023/09/09 06:44:13;;;;;;;;;;;26.10;56.50;;;;;;5072576;28;19999;-56
2023/09/09 06:46:38;;;;;;;;;;;26.20;56.60;;;;;;5072915;28;20261;-55
2023/09/09 06:49:04;;;;;;;;;;;26.20;56.60;;;;;;5072496;28;19909;-55
2023/09/09 06:51:29;;;;;;;;;;;26.20;56.50;;;;;;5072467;28;20015;-54
2023/09/09 06:53:55;;;;;;;;;;;26.20;56.50;;;;;;5072446;28;19912;-55
2023/09/09 06:56:20;;;;;;;;;;;26.10;56.50;;;;;;5072413;28;19908;-55
2023/09/09 06:58:46;;;;;;;;;;;26.10;56.60;;;;;;5072740;28;19916;-55
2023/09/09 07:01:11;;;;;;;;;;;26.20;56.50;;;;;;5072387;28;20463;-55
2023/09/09 07:03:37;;;;;;;;;;;26.10;56.50;;;;;;5072385;28;19912;-56
2023/09/09 07:06:03;;;;;;;;;;;26.20;56.60;;;;;;5072643;28;20376;-55
2023/09/09 07:08:28;;;;;;;;;;;26.10;56.50;;;;;;5071167;28;19909;-55
2023/09/09 07:10:56;;;;;;;;;;;26.10;56.50;;;;;;5072396;28;19962;-55
2023/09/09 07:13:21;;;;;;;;;;;26.20;56.50;;;;;;5072248;28;20016;-55
2023/09/09 07:15:49;;;;;;;;;;;26.10;56.60;;;;;;5072377;28;19916;-55
2023/09/09 07:18:15;;;;;;;;;;;26.10;56.60;;;;;;5072224;28;19915;-55
2023/09/09 07:20:42;;;;;;;;;;;26.20;56.60;;;;;;5072221;28;19908;-55
2023/09/09 07:23:07;;;;;;;;;;;26.20;56.60;;;;;;5072251;28;19919;-56
2023/09/09 07:25:33;;;;;;;;;;;26.10;56.60;;;;;;5073325;28;19909;-55
2023/09/09 07:27:58;;;;;;;;;;;26.20;56.60;;;;;;5075732;28;20008;-55
2023/09/09 07:30:24;;;;;;;;;;;26.10;56.60;;;;;;5076024;28;19909;-56
2023/09/09 07:32:49;;;;;;;;;;;26.20;56.70;;;;;;5075675;28;19957;-55
2023/09/09 07:35:15;;;;;;;;;;;26.10;56.60;;;;;;5075657;28;19973;-55
2023/09/09 07:37:40;;;;;;;;;;;26.20;56.70;;;;;;5075705;28;19948;-55
2023/09/09 07:40:06;;;;;;;;;;;26.10;56.70;;;;;;5075486;28;19958;-55
2023/09/09 07:42:32;;;;;;;;;;;26.20;56.70;;;;;;5075431;28;20019;-55
2023/09/09 07:44:57;;;;;;;;;;;26.20;56.80;;;;;;5075534;28;19912;-55
2023/09/09 07:47:22;;;;;;;;;;;26.20;56.80;;;;;;5075776;28;20292;-55
2023/09/09 07:49:49;;;;;;;;;;;26.10;56.70;;;;;;5075495;28;19920;-55
2023/09/09 07:52:14;;;;;;;;;;;26.20;56.80;;;;;;5075343;28;19920;-55
2023/09/09 07:54:40;;;;;;;;;;;26.20;56.90;;;;;;5075370;28;19908;-55
2023/09/09 07:57:05;;;;;;;;;;;26.20;56.90;;;;;;5075240;28;20384;-55
2023/09/09 07:59:31;;;;;;;;;;;26.20;56.80;;;;;;5075252;28;19948;-55
2023/09/09 08:01:56;;;;;;;;;;;26.20;56.90;;;;;;5075289;28;19916;-55
2023/09/09 08:04:22;;;;;;;;;;;26.20;57.00;;;;;;5075091;28;20341;-55
2023/09/09 08:06:49;;;;;;;;;;;26.20;56.90;;;;;;5075425;28;19909;-55
2023/09/09 08:09:14;;;;;;;;;;;26.20;57.00;;;;;;5075163;28;19944;-55
2023/09/09 08:11:40;;;;;;;;;;;26.20;57.00;;;;;;5075023;28;19955;-55
2023/09/09 08:14:05;;;;;;;;;;;26.20;57.00;;;;;;5074861;28;19962;-55
2023/09/09 08:16:30;;;;;;;;;;;26.20;57.00;;;;;;5074953;28;19908;-55
2023/09/09 08:18:57;;;;;;;;;;;26.20;57.00;;;;;;5074856;28;19977;-55
2023/09/09 08:21:22;;;;;;;;;;;26.20;57.10;;;;;;5074819;28;19912;-55
2023/09/09 08:23:48;;;;;;;;;;;26.20;57.00;;;;;;5074783;28;19919;-55
2023/09/09 08:26:13;;;;;;;;;;;26.20;57.00;;;;;;5074769;28;19931;-55
2023/09/09 08:28:40;;;;;;;;;;;26.20;57.10;;;;;;5074815;28;19912;-55
2023/09/09 08:31:05;;;;;;;;;;;26.20;57.10;;;;;;5074630;28;19913;-55
2023/09/09 08:33:30;;;;;;;;;;;26.20;57.10;;;;;;5074953;28;19908;-55
2023/09/09 08:36:00;;;;;;;;;;;26.20;57.10;;;;;;5074540;28;19908;-55
2023/09/09 08:38:25;;;;;;;;;;;26.20;57.20;;;;;;5073800;28;19915;-55
2023/09/09 08:40:57;;;;;;;;;;;26.20;57.30;;;;;;5074671;28;19910;-55
2023/09/09 08:43:29;;;;;;;;;;;26.20;57.30;;;;;;5074488;28;19916;-56
2023/09/09 08:46:00;;;;;;;;;;;26.30;57.40;;;;;;5074447;28;20007;-55
2023/09/09 08:48:26;;;;;;;;;;;26.20;57.30;;;;;;5074334;28;19963;-55
2023/09/09 08:50:51;;;;;;;;;;;26.30;57.30;;;;;;5072856;28;19958;-55
2023/09/09 08:53:17;;;;;;;;;;;26.30;57.90;;;;;;5072887;28;20280;-55
2023/09/09 08:55:42;;;;;;;;;;;26.30;57.10;;;;;;5074178;28;19940;-55
2023/09/09 08:58:08;;;;;;;;;;;26.30;57.30;;;;;;5073976;28;19908;-55
2023/09/09 09:00:34;;;;;;;;;;;26.30;57.50;;;;;;5074021;28;19916;-55
2023/09/09 09:03:02;;;;;;;;;;;26.40;57.40;;;;;;5074043;28;20311;-56
2023/09/09 09:05:29;;;;;;;;;;;26.50;57.40;;;;;;5073945;28;19909;-55
2023/09/09 09:07:54;;;;;;;;;;;26.50;57.30;;;;;;5073950;28;19908;-55
2023/09/09 09:10:20;;;;;;;;;;;26.50;57.30;;;;;;5073887;28;20391;-55
2023/09/09 09:12:45;;;;;;;;;;;26.50;57.20;;;;;;5072851;28;19912;-55
2023/09/09 09:15:11;;;;;;;;;;;26.50;57.30;;;;;;5072506;28;20003;-55
2023/09/09 09:17:39;;;;;;;;;;;26.60;57.60;;;;;;5073602;28;19958;-55
2023/09/09 09:20:07;;;;;;;;;;;26.60;57.70;;;;;;5073742;28;19912;-55
2023/09/09 09:22:32;;;;;;;;;;;26.60;57.70;;;;;;5073668;28;19908;-55
2023/09/09 09:24:58;;;;;;;;;;;26.60;57.70;;;;;;5073633;28;19931;-55
2023/09/09 09:27:23;;;;;;;;;;;26.60;57.80;;;;;;5073608;28;19958;-55
2023/09/09 09:29:48;;;;;;;;;;;26.60;57.70;;;;;;5073430;28;19955;-55
2023/09/09 09:32:16;;;;;;;;;;;26.60;57.80;;;;;;5073548;28;19908;-55
2023/09/09 09:34:41;;;;;;;;;;;26.70;57.70;;;;;;5073559;28;20336;-55
2023/09/09 09:37:10;;;;;;;;;;;26.70;57.80;;;;;;5073692;28;20013;-55
2023/09/09 09:39:36;;;;;;;;;;;26.80;57.70;;;;;;5073417;28;19955;-55
2023/09/09 09:42:02;;;;;;;;;;;26.90;57.70;;;;;;5073511;28;19948;-55
2023/09/09 09:44:27;;;;;;;;;;;26.90;57.60;;;;;;5073724;28;19920;-55
2023/09/09 09:47:06;;;;;;;;;;;27.00;57.50;;;;;;5073320;28;19908;-56
2023/09/09 09:49:38;;;;;;;;;;;27.00;57.50;;;;;;5072584;28;20376;-55
2023/09/09 09:52:04;;;;;;;;;;;27.00;57.50;;;;;;5073106;28;20277;-55
2023/09/09 09:54:30;;;;;;;;;;;27.00;57.50;;;;;;5073167;28;19908;-55
2023/09/09 09:57:02;;;;;;;;;;;27.00;57.50;;;;;;5073310;28;20387;-55
2023/09/09 09:59:32;;;;;;;;;;;27.00;57.70;;;;;;5073135;28;19915;-55
2023/09/09 10:01:59;;;;;;;;;;;27.10;57.60;;;;;;5073102;28;19954;-55
2023/09/09 10:04:25;;;;;;;;;;;27.20;57.40;;;;;;5073083;28;19912;-55
2023/09/09 10:06:50;;;;;;;;;;;27.20;57.30;;;;;;5073095;28;19916;-55
2023/09/09 10:09:19;;;;;;;;;;;27.20;57.40;;;;;;5073031;28;20269;-55
2023/09/09 10:11:46;;;;;;;;;;;27.10;57.40;;;;;;5054935;28;19944;-55
2023/09/09 10:14:12;;;;;;;;;;;27.10;57.40;;;;;;5072895;28;19919;-55
2023/09/09 10:16:38;;;;;;;;;;;27.20;57.40;;;;;;5072980;28;19912;-57
2023/09/09 10:19:03;;;;;;;;;;;27.20;57.40;;;;;;5071741;28;19908;-55
2023/09/09 10:21:29;;;;;;;;;;;27.20;57.30;;;;;;5072862;28;19909;-55
2023/09/09 10:23:54;;;;;;;;;;;27.30;57.30;;;;;;5072744;28;19916;-55
2023/09/09 10:26:20;;;;;;;;;;;27.30;57.20;;;;;;5071411;28;19916;-55
2023/09/09 10:28:45;;;;;;;;;;;27.30;57.10;;;;;;5054867;28;20284;-55
2023/09/09 10:31:12;;;;;;;;;;;27.40;57.00;;;;;;5072731;28;20265;-55
2023/09/09 10:33:41;;;;;;;;;;;27.40;57.00;;;;;;5072736;28;20017;-55
2023/09/09 10:36:07;;;;;;;;;;;27.50;57.10;;;;;;5072823;28;20348;-55
2023/09/09 10:38:33;;;;;;;;;;;27.50;57.20;;;;;;5072798;28;19909;-55
2023/09/09 10:40:58;;;;;;;;;;;27.50;57.30;;;;;;5072920;28;19908;-55
2023/09/09 10:43:24;;;;;;;;;;;27.50;57.10;;;;;;5071314;28;19912;-55
2023/09/09 10:45:50;;;;;;;;;;;27.70;57.00;;;;;;5072692;28;19909;-55
2023/09/09 10:48:20;;;;;;;;;;;27.70;56.70;;;;;;5072610;28;19915;-56
2023/09/09 10:50:46;;;;;;;;;;;27.80;56.70;;;;;;5072430;28;19970;-55
2023/09/09 10:53:30;;;;;;;;;;;27.80;56.70;;;;;;5072795;28;19908;-55
2023/09/09 10:55:58;;;;;;;;;;;27.80;56.70;;;;;;5072530;28;19909;-55
2023/09/09 10:58:37;;;;;;;;;;;27.80;56.90;;;;;;5072558;28;19913;-55
2023/09/09 11:01:03;;;;;;;;;;;27.80;57.00;;;;;;5074474;28;20352;-55
2023/09/09 11:03:38;;;;;;;;;;;27.90;56.90;;;;;;5075023;28;19920;-56
2023/09/09 11:06:10;;;;;;;;;;;27.80;56.90;;;;;;5075051;28;20292;-55
2023/09/09 11:08:41;;;;;;;;;;;27.90;56.90;;;;;;5076189;28;19915;-55
2023/09/09 11:11:16;;;;;;;;;;;27.90;57.00;;;;;;5076060;28;19912;-55
2023/09/09 11:13:57;;;;;;;;;;;27.90;56.90;;;;;;5076313;28;20334;-55
2023/09/09 11:16:30;;;;;;;;;;;27.90;56.90;;;;;;5075997;28;19959;-55
2023/09/09 11:19:00;;;;;;;;;;;28.00;56.90;;;;;;5076133;28;19912;-55
2023/09/09 11:21:26;;;;;;;;;;;28.00;56.70;;;;;;5075998;28;20368;-55
2023/09/09 11:23:51;;;;;;;;;;;28.00;56.80;;;;;;5076139;28;19912;-55
2023/09/09 11:26:17;;;;;;;;;;;28.10;56.80;;;;;;5075893;28;19908;-55
2023/09/09 11:28:43;;;;;;;;;;;28.10;56.70;;;;;;5076138;28;19916;-55
2023/09/09 11:31:14;;;;;;;;;;;28.10;56.70;;;;;;5058069;28;20372;-55
2023/09/09 11:33:40;;;;;;;;;;;28.20;56.50;;;;;;5075828;28;20285;-56
2023/09/09 11:36:05;;;;;;;;;;;28.20;56.60;;;;;;5074500;28;19919;-55
2023/09/09 11:38:31;;;;;;;;;;;28.20;56.90;;;;;;5075632;28;19958;-55
2023/09/09 11:40:57;;;;;;;;;;;28.20;56.90;;;;;;5075668;28;19914;-55
2023/09/09 11:43:22;;;;;;;;;;;28.30;56.70;;;;;;5075567;28;19952;-55
2023/09/09 11:45:48;;;;;;;;;;;28.20;56.70;;;;;;5075623;28;19909;-55
2023/09/09 11:48:14;;;;;;;;;;;28.20;56.90;;;;;;5075487;28;19916;-55
2023/09/09 11:50:42;;;;;;;;;;;28.30;56.80;;;;;;5074122;28;19923;-54
2023/09/09 11:53:12;;;;;;;;;;;28.20;56.80;;;;;;5075456;28;19912;-56
2023/09/09 11:55:40;;;;;;;;;;;28.30;56.80;;;;;;5074140;28;19908;-56
2023/09/09 11:58:06;;;;;;;;;;;28.30;56.90;;;;;;5075245;28;20324;-55
2023/09/09 12:00:31;;;;;;;;;;;28.20;57.20;;;;;;5075431;28;20007;-55
2023/09/09 12:02:57;;;;;;;;;;;28.20;57.30;;;;;;5075210;28;19917;-55
2023/09/09 12:05:29;;;;;;;;;;;28.20;57.10;;;;;;5075477;28;20007;-55
2023/09/09 12:07:56;;;;;;;;;;;28.30;56.80;;;;;;5075101;28;19908;-55
2023/09/09 12:10:22;;;;;;;;;;;28.30;56.80;;;;;;5073874;28;19908;-55
2023/09/09 12:12:47;;;;;;;;;;;28.40;56.70;;;;;;5073884;28;19958;-55
2023/09/09 12:15:13;;;;;;;;;;;28.40;56.80;;;;;;5074830;28;20317;-55
2023/09/09 12:17:38;;;;;;;;;;;28.40;56.70;;;;;;5073769;28;20105;-56
2023/09/09 12:20:13;;;;;;;;;;;28.40;56.80;;;;;;5074905;28;20335;-55
2023/09/09 12:22:43;;;;;;;;;;;28.40;57.00;;;;;;5081610;28;19908;-55
2023/09/09 12:25:27;;;;;;;;;;;28.40;57.00;;;;;;5073449;28;19931;-56
2023/09/09 12:27:53;;;;;;;;;;;28.40;56.80;;;;;;5073402;28;19908;-55
2023/09/09 12:30:33;;;;;;;;;;;28.60;56.20;;;;;;5073452;28;19915;-55
2023/09/09 12:33:11;;;;;;;;;;;28.70;56.30;;;;;;5074696;28;19909;-55
2023/09/09 12:35:46;;;;;;;;;;;28.60;56.50;;;;;;5074596;28;19918;-56
2023/09/09 12:38:12;;;;;;;;;;;28.50;56.90;;;;;;5074656;28;19909;-55
2023/09/09 12:40:47;;;;;;;;;;;28.30;57.30;;;;;;5074598;28;19915;-56
2023/09/09 12:43:12;;;;;;;;;;;28.30;57.50;;;;;;5074353;28;19912;-54
2023/09/09 12:45:44;;;;;;;;;;;28.40;57.20;;;;;;5073190;28;19961;-55
2023/09/09 12:48:10;;;;;;;;;;;28.50;57.10;;;;;;5074411;28;19908;-55
2023/09/09 12:50:35;;;;;;;;;;;28.50;56.60;;;;;;5074334;28;19917;-55
2023/09/09 12:53:01;;;;;;;;;;;28.60;56.30;;;;;;5074394;28;20361;-55
2023/09/09 12:55:26;;;;;;;;;;;28.70;56.60;;;;;;5074075;28;20318;-56
2023/09/09 12:57:52;;;;;;;;;;;28.60;56.80;;;;;;5074207;28;20372;-55
2023/09/09 13:00:18;;;;;;;;;;;28.60;56.70;;;;;;5072745;28;19916;-55
2023/09/09 13:02:43;;;;;;;;;;;28.70;56.80;;;;;;5074012;28;19912;-55
2023/09/09 13:05:09;;;;;;;;;;;28.60;56.80;;;;;;5074197;28;19919;-55
2023/09/09 13:07:34;;;;;;;;;;;28.80;56.30;;;;;;5074019;28;19995;-55
2023/09/09 13:10:00;;;;;;;;;;;28.80;56.30;;;;;;5073868;28;19995;-55
2023/09/09 13:12:25;;;;;;;;;;;28.70;56.70;;;;;;5073978;28;19954;-55
2023/09/09 13:14:51;;;;;;;;;;;28.60;56.40;;;;;;5074032;28;19909;-55
2023/09/09 13:17:16;;;;;;;;;;;28.60;56.70;;;;;;5073856;28;20268;-55
2023/09/09 13:19:41;;;;;;;;;;;28.60;56.90;;;;;;5072422;28;19912;-56
2023/09/09 13:22:07;;;;;;;;;;;28.70;56.30;;;;;;5073560;28;19908;-55
2023/09/09 13:24:32;;;;;;;;;;;28.70;56.30;;;;;;5073231;28;19961;-55
2023/09/09 13:26:58;;;;;;;;;;;28.70;56.60;;;;;;5073629;28;19915;-55
2023/09/09 13:29:23;;;;;;;;;;;28.80;56.30;;;;;;5073739;28;19909;-55
2023/09/09 13:31:49;;;;;;;;;;;28.90;56.00;;;;;;5073426;28;19909;-56
2023/09/09 13:34:14;;;;;;;;;;;28.90;56.10;;;;;;5073557;28;19908;-56
2023/09/09 13:36:40;;;;;;;;;;;28.90;55.70;;;;;;5072088;28;19916;-55
2023/09/09 13:39:05;;;;;;;;;;;28.90;55.40;;;;;;5073302;28;19974;-55
2023/09/09 13:41:30;;;;;;;;;;;28.90;56.40;;;;;;5073258;28;19909;-55
2023/09/09 13:43:56;;;;;;;;;;;28.80;56.10;;;;;;5073301;28;20414;-55
2023/09/09 13:46:21;;;;;;;;;;;28.90;55.40;;;;;;5073193;28;19943;-56
2023/09/09 13:48:47;;;;;;;;;;;29.00;55.10;;;;;;5073174;28;20326;-55
2023/09/09 13:51:12;;;;;;;;;;;29.00;56.10;;;;;;5073037;28;19920;-55
2023/09/09 13:53:38;;;;;;;;;;;28.90;56.00;;;;;;5073021;28;20003;-55
2023/09/09 13:56:03;;;;;;;;;;;28.90;56.10;;;;;;5073000;28;19916;-56
2023/09/09 13:58:28;;;;;;;;;;;28.80;56.20;;;;;;5073276;28;19908;-56
2023/09/09 14:00:54;;;;;;;;;;;28.80;56.10;;;;;;5071835;28;19908;-56
2023/09/09 14:03:19;;;;;;;;;;;28.90;55.20;;;;;;5072949;28;19916;-55
2023/09/09 14:05:45;;;;;;;;;;;28.80;55.90;;;;;;5073115;28;19999;-56
2023/09/09 14:08:10;;;;;;;;;;;28.90;54.20;;;;;;5072936;28;19909;-55
2023/09/09 14:10:36;;;;;;;;;;;29.10;53.60;;;;;;5073081;28;19932;-56